sensor_id;sensor_type;location;lat;lon;timestamp;P1;durP1;ratioP1;P2;durP2;ratioP2
29500;SDS011;16450;50.288;10.966;2023-04-15T00:00:06;12.37;;;6.60;;
29500;SDS011;16450;50.288;10.966;2023-04-15T00:03:08;9.53;;;6.50;;
29500;SDS011;16450;50.288;10.966;2023-04-15T00:06:11;10.10;;;6.97;;
29500;SDS011;16450;50.288;10.966;2023-04-15T00:09:13;10.67;;;6.63;;
29500;SDS011;16450;50.288;10.966;2023-04-15T00:12:15;11.17;;;7.13;;
29500;SDS011;16450;50.288;10.966;2023-04-15T00:15:17;10.17;;;6.53;;
29500;SDS011;16450;50.288;10.966;2023-04-15T00:18:20;11.73;;;7.03;;
29500;SDS011;16450;50.288;10.966;2023-04-15T00:21:22;10.17;;;6.87;;
29500;SDS011;16450;50.288;10.966;2023-04-15T00:24:24;11.03;;;6.50;;
29500;SDS011;16450;50.288;10.966;2023-04-15T00:27:26;11.20;;;7.03;;
29500;SDS011;16450;50.288;10.966;2023-04-15T00:30:27;10.23;;;6.87;;
29500;SDS011;16450;50.288;10.966;2023-04-15T00:33:29;10.70;;;7.10;;
29500;SDS011;16450;50.288;10.966;2023-04-15T00:36:32;10.20;;;7.27;;
29500;SDS011;16450;50.288;10.966;2023-04-15T00:39:35;10.20;;;7.13;;
29500;SDS011;16450;50.288;10.966;2023-04-15T00:42:37;9.07;;;6.40;;
29500;SDS011;16450;50.288;10.966;2023-04-15T00:45:40;9.63;;;6.97;;
29500;SDS011;16450;50.288;10.966;2023-04-15T00:48:42;11.07;;;7.23;;
29500;SDS011;16450;50.288;10.966;2023-04-15T00:51:44;10.73;;;7.00;;
29500;SDS011;16450;50.288;10.966;2023-04-15T00:54:46;10.30;;;7.17;;
29500;SDS011;16450;50.288;10.966;2023-04-15T00:57:48;11.17;;;7.23;;
29500;SDS011;16450;50.288;10.966;2023-04-15T01:00:51;11.30;;;8.13;;
29500;SDS011;16450;50.288;10.966;2023-04-15T01:03:55;14.53;;;7.77;;
29500;SDS011;16450;50.288;10.966;2023-04-15T01:07:00;10.50;;;7.33;;
29500;SDS011;16450;50.288;10.966;2023-04-15T01:10:03;10.80;;;7.60;;
29500;SDS011;16450;50.288;10.966;2023-04-15T01:13:05;15.23;;;9.13;;
29500;SDS011;16450;50.288;10.966;2023-04-15T01:16:07;11.93;;;8.37;;
29500;SDS011;16450;50.288;10.966;2023-04-15T01:19:09;12.13;;;8.23;;
29500;SDS011;16450;50.288;10.966;2023-04-15T01:22:14;11.00;;;7.40;;
29500;SDS011;16450;50.288;10.966;2023-04-15T01:25:17;9.33;;;7.20;;
29500;SDS011;16450;50.288;10.966;2023-04-15T01:28:20;10.73;;;7.40;;
29500;SDS011;16450;50.288;10.966;2023-04-15T01:31:22;11.57;;;7.73;;
29500;SDS011;16450;50.288;10.966;2023-04-15T01:34:24;12.70;;;7.37;;
29500;SDS011;16450;50.288;10.966;2023-04-15T01:37:26;10.03;;;7.40;;
29500;SDS011;16450;50.288;10.966;2023-04-15T01:40:29;11.33;;;8.10;;
29500;SDS011;16450;50.288;10.966;2023-04-15T01:43:31;10.67;;;7.30;;
29500;SDS011;16450;50.288;10.966;2023-04-15T01:46:33;10.33;;;6.80;;
29500;SDS011;16450;50.288;10.966;2023-04-15T01:49:37;10.83;;;7.10;;
29500;SDS011;16450;50.288;10.966;2023-04-15T01:52:39;9.90;;;7.47;;
29500;SDS011;16450;50.288;10.966;2023-04-15T01:55:41;11.97;;;8.20;;
29500;SDS011;16450;50.288;10.966;2023-04-15T01:58:43;12.00;;;7.80;;
29500;SDS011;16450;50.288;10.966;2023-04-15T02:01:45;11.33;;;8.10;;
29500;SDS011;16450;50.288;10.966;2023-04-15T02:04:47;15.83;;;8.10;;
29500;SDS011;16450;50.288;10.966;2023-04-15T02:07:50;12.03;;;7.43;;
29500;SDS011;16450;50.288;10.966;2023-04-15T02:10:52;10.97;;;7.77;;
29500;SDS011;16450;50.288;10.966;2023-04-15T02:13:54;11.23;;;7.70;;
29500;SDS011;16450;50.288;10.966;2023-04-15T02:16:56;10.90;;;7.73;;
29500;SDS011;16450;50.288;10.966;2023-04-15T02:19:58;11.50;;;8.07;;
29500;SDS011;16450;50.288;10.966;2023-04-15T02:23:00;10.17;;;7.60;;
29500;SDS011;16450;50.288;10.966;2023-04-15T02:26:03;10.90;;;8.00;;
29500;SDS011;16450;50.288;10.966;2023-04-15T02:29:05;14.37;;;8.40;;
29500;SDS011;16450;50.288;10.966;2023-04-15T02:32:07;11.67;;;7.80;;
29500;SDS011;16450;50.288;10.966;2023-04-15T02:35:10;10.47;;;7.13;;
29500;SDS011;16450;50.288;10.966;2023-04-15T02:38:12;10.93;;;7.47;;
29500;SDS011;16450;50.288;10.966;2023-04-15T02:41:14;12.27;;;7.23;;
29500;SDS011;16450;50.288;10.966;2023-04-15T02:44:16;11.07;;;7.50;;
29500;SDS011;16450;50.288;10.966;2023-04-15T02:47:22;12.63;;;7.57;;
29500;SDS011;16450;50.288;10.966;2023-04-15T02:50:24;10.80;;;7.40;;
29500;SDS011;16450;50.288;10.966;2023-04-15T02:53:26;11.43;;;7.90;;
29500;SDS011;16450;50.288;10.966;2023-04-15T02:56:27;13.33;;;7.73;;
29500;SDS011;16450;50.288;10.966;2023-04-15T02:59:30;10.37;;;7.53;;
29500;SDS011;16450;50.288;10.966;2023-04-15T03:02:33;10.70;;;7.40;;
29500;SDS011;16450;50.288;10.966;2023-04-15T03:05:35;11.93;;;7.47;;
29500;SDS011;16450;50.288;10.966;2023-04-15T03:08:39;11.60;;;7.80;;
29500;SDS011;16450;50.288;10.966;2023-04-15T03:11:41;12.23;;;8.17;;
29500;SDS011;16450;50.288;10.966;2023-04-15T03:14:43;11.23;;;7.43;;
29500;SDS011;16450;50.288;10.966;2023-04-15T03:17:45;9.57;;;6.97;;
29500;SDS011;16450;50.288;10.966;2023-04-15T03:20:49;12.33;;;7.93;;
29500;SDS011;16450;50.288;10.966;2023-04-15T03:23:51;11.27;;;7.10;;
29500;SDS011;16450;50.288;10.966;2023-04-15T03:26:53;11.50;;;7.43;;
29500;SDS011;16450;50.288;10.966;2023-04-15T03:29:56;9.83;;;7.00;;
29500;SDS011;16450;50.288;10.966;2023-04-15T03:32:58;12.33;;;8.30;;
29500;SDS011;16450;50.288;10.966;2023-04-15T03:36:00;12.73;;;8.30;;
29500;SDS011;16450;50.288;10.966;2023-04-15T03:39:02;12.57;;;8.00;;
29500;SDS011;16450;50.288;10.966;2023-04-15T03:42:04;12.20;;;8.50;;
29500;SDS011;16450;50.288;10.966;2023-04-15T03:45:06;12.37;;;8.60;;
29500;SDS011;16450;50.288;10.966;2023-04-15T03:48:08;13.17;;;8.70;;
29500;SDS011;16450;50.288;10.966;2023-04-15T03:51:17;13.50;;;8.90;;
29500;SDS011;16450;50.288;10.966;2023-04-15T03:54:19;12.57;;;8.87;;
29500;SDS011;16450;50.288;10.966;2023-04-15T03:57:21;12.53;;;8.63;;
29500;SDS011;16450;50.288;10.966;2023-04-15T04:00:24;11.27;;;8.13;;
29500;SDS011;16450;50.288;10.966;2023-04-15T04:03:26;12.43;;;8.03;;
29500;SDS011;16450;50.288;10.966;2023-04-15T04:06:28;11.63;;;7.67;;
29500;SDS011;16450;50.288;10.966;2023-04-15T04:09:31;13.37;;;7.60;;
29500;SDS011;16450;50.288;10.966;2023-04-15T04:12:33;11.20;;;7.30;;
29500;SDS011;16450;50.288;10.966;2023-04-15T04:15:35;11.63;;;8.07;;
29500;SDS011;16450;50.288;10.966;2023-04-15T04:18:37;13.27;;;7.87;;
29500;SDS011;16450;50.288;10.966;2023-04-15T04:21:38;10.90;;;7.27;;
29500;SDS011;16450;50.288;10.966;2023-04-15T04:24:40;10.83;;;7.60;;
29500;SDS011;16450;50.288;10.966;2023-04-15T04:27:42;10.90;;;7.30;;
29500;SDS011;16450;50.288;10.966;2023-04-15T04:30:45;11.90;;;7.67;;
29500;SDS011;16450;50.288;10.966;2023-04-15T04:33:47;13.30;;;8.20;;
29500;SDS011;16450;50.288;10.966;2023-04-15T04:36:49;11.53;;;7.73;;
29500;SDS011;16450;50.288;10.966;2023-04-15T04:39:51;12.27;;;7.47;;
29500;SDS011;16450;50.288;10.966;2023-04-15T04:42:53;10.80;;;8.00;;
29500;SDS011;16450;50.288;10.966;2023-04-15T04:45:55;13.77;;;7.93;;
29500;SDS011;16450;50.288;10.966;2023-04-15T04:48:57;12.33;;;8.10;;
29500;SDS011;16450;50.288;10.966;2023-04-15T04:51:59;11.67;;;8.13;;
29500;SDS011;16450;50.288;10.966;2023-04-15T04:55:01;13.07;;;8.87;;
29500;SDS011;16450;50.288;10.966;2023-04-15T04:58:03;14.77;;;8.63;;
29500;SDS011;16450;50.288;10.966;2023-04-15T05:01:05;12.47;;;8.13;;
29500;SDS011;16450;50.288;10.966;2023-04-15T05:04:06;14.53;;;8.73;;
29500;SDS011;16450;50.288;10.966;2023-04-15T05:07:08;13.30;;;8.83;;
29500;SDS011;16450;50.288;10.966;2023-04-15T05:10:11;12.93;;;8.33;;
29500;SDS011;16450;50.288;10.966;2023-04-15T05:13:13;12.50;;;9.37;;
29500;SDS011;16450;50.288;10.966;2023-04-15T05:16:15;14.03;;;8.93;;
29500;SDS011;16450;50.288;10.966;2023-04-15T05:19:18;14.40;;;9.43;;
29500;SDS011;16450;50.288;10.966;2023-04-15T05:22:20;14.17;;;9.50;;
29500;SDS011;16450;50.288;10.966;2023-04-15T05:25:21;13.73;;;9.70;;
29500;SDS011;16450;50.288;10.966;2023-04-15T05:28:23;17.03;;;9.97;;
29500;SDS011;16450;50.288;10.966;2023-04-15T05:31:28;16.80;;;11.23;;
29500;SDS011;16450;50.288;10.966;2023-04-15T05:34:31;15.47;;;9.87;;
29500;SDS011;16450;50.288;10.966;2023-04-15T05:37:32;16.27;;;10.80;;
29500;SDS011;16450;50.288;10.966;2023-04-15T05:40:34;14.77;;;10.23;;
29500;SDS011;16450;50.288;10.966;2023-04-15T05:43:37;13.73;;;9.87;;
29500;SDS011;16450;50.288;10.966;2023-04-15T05:46:39;16.27;;;10.50;;
29500;SDS011;16450;50.288;10.966;2023-04-15T05:49:41;15.40;;;10.33;;
29500;SDS011;16450;50.288;10.966;2023-04-15T05:52:43;16.03;;;10.23;;
29500;SDS011;16450;50.288;10.966;2023-04-15T05:55:46;18.90;;;10.53;;
29500;SDS011;16450;50.288;10.966;2023-04-15T05:58:48;15.57;;;10.17;;
29500;SDS011;16450;50.288;10.966;2023-04-15T06:01:52;17.57;;;10.97;;
29500;SDS011;16450;50.288;10.966;2023-04-15T06:04:53;16.50;;;10.90;;
29500;SDS011;16450;50.288;10.966;2023-04-15T06:07:56;19.37;;;11.67;;
29500;SDS011;16450;50.288;10.966;2023-04-15T06:10:57;18.77;;;10.57;;
29500;SDS011;16450;50.288;10.966;2023-04-15T06:14:00;18.63;;;11.60;;
29500;SDS011;16450;50.288;10.966;2023-04-15T06:17:02;16.10;;;10.53;;
29500;SDS011;16450;50.288;10.966;2023-04-15T06:20:04;18.07;;;10.77;;
29500;SDS011;16450;50.288;10.966;2023-04-15T06:23:06;16.67;;;10.90;;
29500;SDS011;16450;50.288;10.966;2023-04-15T06:26:08;23.13;;;11.63;;
29500;SDS011;16450;50.288;10.966;2023-04-15T06:29:10;17.73;;;10.83;;
29500;SDS011;16450;50.288;10.966;2023-04-15T06:32:12;17.77;;;11.20;;
29500;SDS011;16450;50.288;10.966;2023-04-15T06:35:14;18.87;;;11.27;;
29500;SDS011;16450;50.288;10.966;2023-04-15T06:38:16;17.80;;;10.97;;
29500;SDS011;16450;50.288;10.966;2023-04-15T06:41:18;17.17;;;11.47;;
29500;SDS011;16450;50.288;10.966;2023-04-15T06:44:20;19.63;;;11.40;;
29500;SDS011;16450;50.288;10.966;2023-04-15T06:47:22;19.93;;;11.27;;
29500;SDS011;16450;50.288;10.966;2023-04-15T06:50:24;17.47;;;11.37;;
29500;SDS011;16450;50.288;10.966;2023-04-15T06:53:26;17.07;;;10.77;;
29500;SDS011;16450;50.288;10.966;2023-04-15T06:56:28;18.37;;;12.23;;
29500;SDS011;16450;50.288;10.966;2023-04-15T06:59:30;18.83;;;10.87;;
29500;SDS011;16450;50.288;10.966;2023-04-15T07:02:33;17.07;;;11.23;;
29500;SDS011;16450;50.288;10.966;2023-04-15T07:05:35;18.83;;;11.77;;
29500;SDS011;16450;50.288;10.966;2023-04-15T07:08:38;17.53;;;11.43;;
29500;SDS011;16450;50.288;10.966;2023-04-15T07:11:39;16.73;;;11.07;;
29500;SDS011;16450;50.288;10.966;2023-04-15T07:14:42;19.43;;;12.40;;
29500;SDS011;16450;50.288;10.966;2023-04-15T07:17:44;19.77;;;12.37;;
29500;SDS011;16450;50.288;10.966;2023-04-15T07:20:45;18.23;;;12.20;;
29500;SDS011;16450;50.288;10.966;2023-04-15T07:23:48;17.57;;;11.97;;
29500;SDS011;16450;50.288;10.966;2023-04-15T07:26:50;18.40;;;12.20;;
29500;SDS011;16450;50.288;10.966;2023-04-15T07:29:52;20.57;;;11.43;;
29500;SDS011;16450;50.288;10.966;2023-04-15T07:32:54;17.73;;;11.70;;
29500;SDS011;16450;50.288;10.966;2023-04-15T07:35:56;18.40;;;12.00;;
29500;SDS011;16450;50.288;10.966;2023-04-15T07:38:58;16.90;;;11.93;;
29500;SDS011;16450;50.288;10.966;2023-04-15T07:42:02;15.80;;;11.30;;
29500;SDS011;16450;50.288;10.966;2023-04-15T07:45:05;17.13;;;12.13;;
29500;SDS011;16450;50.288;10.966;2023-04-15T07:48:07;17.53;;;11.87;;
29500;SDS011;16450;50.288;10.966;2023-04-15T07:51:09;18.67;;;11.73;;
29500;SDS011;16450;50.288;10.966;2023-04-15T07:54:16;15.90;;;10.57;;
29500;SDS011;16450;50.288;10.966;2023-04-15T07:57:19;17.80;;;10.97;;
29500;SDS011;16450;50.288;10.966;2023-04-15T08:00:21;15.63;;;10.50;;
29500;SDS011;16450;50.288;10.966;2023-04-15T08:03:24;15.43;;;10.07;;
29500;SDS011;16450;50.288;10.966;2023-04-15T08:06:28;14.30;;;9.67;;
29500;SDS011;16450;50.288;10.966;2023-04-15T08:09:30;15.50;;;9.43;;
29500;SDS011;16450;50.288;10.966;2023-04-15T08:12:32;14.37;;;9.40;;
29500;SDS011;16450;50.288;10.966;2023-04-15T08:15:34;12.83;;;8.53;;
29500;SDS011;16450;50.288;10.966;2023-04-15T08:18:36;13.10;;;9.00;;
29500;SDS011;16450;50.288;10.966;2023-04-15T08:21:38;12.40;;;8.37;;
29500;SDS011;16450;50.288;10.966;2023-04-15T08:24:41;12.83;;;8.23;;
29500;SDS011;16450;50.288;10.966;2023-04-15T08:27:43;11.73;;;8.00;;
29500;SDS011;16450;50.288;10.966;2023-04-15T08:30:46;14.00;;;7.83;;
29500;SDS011;16450;50.288;10.966;2023-04-15T08:33:48;11.47;;;7.63;;
29500;SDS011;16450;50.288;10.966;2023-04-15T08:36:52;11.90;;;7.37;;
29500;SDS011;16450;50.288;10.966;2023-04-15T08:39:54;10.40;;;6.83;;
29500;SDS011;16450;50.288;10.966;2023-04-15T08:42:57;10.50;;;7.23;;
29500;SDS011;16450;50.288;10.966;2023-04-15T08:46:01;10.37;;;6.97;;
29500;SDS011;16450;50.288;10.966;2023-04-15T08:49:04;9.93;;;6.83;;
29500;SDS011;16450;50.288;10.966;2023-04-15T08:52:11;10.60;;;7.23;;
29500;SDS011;16450;50.288;10.966;2023-04-15T08:55:13;11.83;;;6.83;;
29500;SDS011;16450;50.288;10.966;2023-04-15T08:58:16;10.37;;;6.70;;
29500;SDS011;16450;50.288;10.966;2023-04-15T09:01:19;14.07;;;7.33;;
29500;SDS011;16450;50.288;10.966;2023-04-15T09:04:21;10.27;;;6.90;;
29500;SDS011;16450;50.288;10.966;2023-04-15T09:07:23;10.73;;;7.30;;
29500;SDS011;16450;50.288;10.966;2023-04-15T09:10:26;10.37;;;6.80;;
29500;SDS011;16450;50.288;10.966;2023-04-15T09:13:29;12.13;;;7.20;;
29500;SDS011;16450;50.288;10.966;2023-04-15T09:16:31;10.17;;;6.80;;
29500;SDS011;16450;50.288;10.966;2023-04-15T09:20:06;10.43;;;6.70;;
29500;SDS011;16450;50.288;10.966;2023-04-15T09:23:14;11.23;;;6.97;;
29500;SDS011;16450;50.288;10.966;2023-04-15T09:26:17;11.77;;;7.20;;
29500;SDS011;16450;50.288;10.966;2023-04-15T09:29:19;10.90;;;6.83;;
29500;SDS011;16450;50.288;10.966;2023-04-15T09:32:24;11.10;;;7.23;;
29500;SDS011;16450;50.288;10.966;2023-04-15T09:35:27;11.20;;;7.20;;
29500;SDS011;16450;50.288;10.966;2023-04-15T09:38:29;9.67;;;7.17;;
29500;SDS011;16450;50.288;10.966;2023-04-15T09:41:31;9.47;;;6.97;;
29500;SDS011;16450;50.288;10.966;2023-04-15T09:44:33;10.50;;;6.70;;
29500;SDS011;16450;50.288;10.966;2023-04-15T09:47:36;9.90;;;6.20;;
29500;SDS011;16450;50.288;10.966;2023-04-15T09:50:39;9.93;;;6.50;;
29500;SDS011;16450;50.288;10.966;2023-04-15T09:53:43;10.17;;;6.67;;
29500;SDS011;16450;50.288;10.966;2023-04-15T09:56:44;10.17;;;6.63;;
29500;SDS011;16450;50.288;10.966;2023-04-15T09:59:47;9.13;;;6.20;;
29500;SDS011;16450;50.288;10.966;2023-04-15T10:02:48;7.20;;;5.50;;
29500;SDS011;16450;50.288;10.966;2023-04-15T10:05:51;9.50;;;6.10;;
29500;SDS011;16450;50.288;10.966;2023-04-15T10:08:54;9.60;;;6.23;;
29500;SDS011;16450;50.288;10.966;2023-04-15T10:11:57;9.70;;;5.90;;
29500;SDS011;16450;50.288;10.966;2023-04-15T10:15:00;9.73;;;6.17;;
29500;SDS011;16450;50.288;10.966;2023-04-15T10:18:07;7.80;;;5.80;;
29500;SDS011;16450;50.288;10.966;2023-04-15T10:21:12;7.93;;;5.70;;
29500;SDS011;16450;50.288;10.966;2023-04-15T10:24:16;7.83;;;5.53;;
29500;SDS011;16450;50.288;10.966;2023-04-15T10:27:19;8.53;;;5.57;;
29500;SDS011;16450;50.288;10.966;2023-04-15T10:30:22;8.37;;;5.43;;
29500;SDS011;16450;50.288;10.966;2023-04-15T10:33:24;9.00;;;5.57;;
29500;SDS011;16450;50.288;10.966;2023-04-15T10:36:27;8.27;;;5.50;;
29500;SDS011;16450;50.288;10.966;2023-04-15T10:42:38;8.03;;;5.73;;
29500;SDS011;16450;50.288;10.966;2023-04-15T10:45:43;10.00;;;5.70;;
29500;SDS011;16450;50.288;10.966;2023-04-15T10:48:47;8.30;;;5.57;;
29500;SDS011;16450;50.288;10.966;2023-04-15T10:51:51;7.10;;;5.10;;
29500;SDS011;16450;50.288;10.966;2023-04-15T10:58:11;8.40;;;5.43;;
29500;SDS011;16450;50.288;10.966;2023-04-15T11:01:15;8.17;;;5.57;;
29500;SDS011;16450;50.288;10.966;2023-04-15T11:07:54;7.10;;;4.53;;
29500;SDS011;16450;50.288;10.966;2023-04-15T11:10:57;7.70;;;4.97;;
29500;SDS011;16450;50.288;10.966;2023-04-15T11:14:01;7.23;;;4.83;;
29500;SDS011;16450;50.288;10.966;2023-04-15T11:17:03;6.53;;;4.23;;
29500;SDS011;16450;50.288;10.966;2023-04-15T11:20:05;5.90;;;4.30;;
29500;SDS011;16450;50.288;10.966;2023-04-15T11:23:09;6.77;;;4.53;;
29500;SDS011;16450;50.288;10.966;2023-04-15T11:26:15;6.17;;;4.10;;
29500;SDS011;16450;50.288;10.966;2023-04-15T11:29:17;5.77;;;4.20;;
29500;SDS011;16450;50.288;10.966;2023-04-15T11:32:20;6.37;;;3.67;;
29500;SDS011;16450;50.288;10.966;2023-04-15T11:35:22;4.67;;;3.67;;
29500;SDS011;16450;50.288;10.966;2023-04-15T11:38:24;6.03;;;4.10;;
29500;SDS011;16450;50.288;10.966;2023-04-15T11:41:26;4.73;;;3.50;;
29500;SDS011;16450;50.288;10.966;2023-04-15T11:44:28;5.13;;;3.50;;
29500;SDS011;16450;50.288;10.966;2023-04-15T11:47:29;5.23;;;3.43;;
29500;SDS011;16450;50.288;10.966;2023-04-15T11:50:31;4.70;;;3.47;;
29500;SDS011;16450;50.288;10.966;2023-04-15T11:53:47;7.50;;;3.87;;
29500;SDS011;16450;50.288;10.966;2023-04-15T11:56:50;4.17;;;3.40;;
29500;SDS011;16450;50.288;10.966;2023-04-15T11:59:54;4.37;;;3.20;;
29500;SDS011;16450;50.288;10.966;2023-04-15T12:06:45;5.17;;;3.37;;
29500;SDS011;16450;50.288;10.966;2023-04-15T12:09:53;3.97;;;3.17;;
29500;SDS011;16450;50.288;10.966;2023-04-15T12:12:57;4.37;;;3.00;;
29500;SDS011;16450;50.288;10.966;2023-04-15T12:15:59;4.27;;;3.47;;
29500;SDS011;16450;50.288;10.966;2023-04-15T12:19:03;4.23;;;3.40;;
29500;SDS011;16450;50.288;10.966;2023-04-15T12:22:14;4.83;;;3.10;;
29500;SDS011;16450;50.288;10.966;2023-04-15T12:25:18;3.67;;;2.70;;
29500;SDS011;16450;50.288;10.966;2023-04-15T12:28:20;3.87;;;2.83;;
29500;SDS011;16450;50.288;10.966;2023-04-15T12:31:21;3.50;;;2.70;;
29500;SDS011;16450;50.288;10.966;2023-04-15T12:34:25;3.07;;;2.60;;
29500;SDS011;16450;50.288;10.966;2023-04-15T12:37:27;3.47;;;2.57;;
29500;SDS011;16450;50.288;10.966;2023-04-15T12:40:29;3.57;;;2.60;;
29500;SDS011;16450;50.288;10.966;2023-04-15T12:43:31;3.37;;;2.40;;
29500;SDS011;16450;50.288;10.966;2023-04-15T12:46:32;4.10;;;2.50;;
29500;SDS011;16450;50.288;10.966;2023-04-15T12:49:35;4.47;;;3.00;;
29500;SDS011;16450;50.288;10.966;2023-04-15T12:52:37;4.53;;;3.00;;
29500;SDS011;16450;50.288;10.966;2023-04-15T12:55:39;4.80;;;3.03;;
29500;SDS011;16450;50.288;10.966;2023-04-15T12:58:42;5.13;;;2.70;;
29500;SDS011;16450;50.288;10.966;2023-04-15T13:01:44;3.50;;;2.63;;
29500;SDS011;16450;50.288;10.966;2023-04-15T13:04:47;4.10;;;2.70;;
29500;SDS011;16450;50.288;10.966;2023-04-15T13:07:49;4.17;;;2.50;;
29500;SDS011;16450;50.288;10.966;2023-04-15T13:10:51;3.87;;;2.80;;
29500;SDS011;16450;50.288;10.966;2023-04-15T13:13:53;4.37;;;2.80;;
29500;SDS011;16450;50.288;10.966;2023-04-15T13:16:56;3.47;;;2.30;;
29500;SDS011;16450;50.288;10.966;2023-04-15T13:19:59;4.00;;;2.27;;
29500;SDS011;16450;50.288;10.966;2023-04-15T13:23:01;2.13;;;1.90;;
29500;SDS011;16450;50.288;10.966;2023-04-15T13:26:03;4.37;;;2.40;;
29500;SDS011;16450;50.288;10.966;2023-04-15T13:29:05;2.37;;;2.10;;
29500;SDS011;16450;50.288;10.966;2023-04-15T13:32:07;5.93;;;1.80;;
29500;SDS011;16450;50.288;10.966;2023-04-15T13:35:09;2.43;;;2.00;;
29500;SDS011;16450;50.288;10.966;2023-04-15T13:38:11;2.27;;;1.90;;
29500;SDS011;16450;50.288;10.966;2023-04-15T13:41:13;2.03;;;1.83;;
29500;SDS011;16450;50.288;10.966;2023-04-15T13:44:15;3.23;;;2.00;;
29500;SDS011;16450;50.288;10.966;2023-04-15T13:47:18;2.00;;;1.80;;
29500;SDS011;16450;50.288;10.966;2023-04-15T13:50:20;2.23;;;1.90;;
29500;SDS011;16450;50.288;10.966;2023-04-15T13:53:22;2.77;;;2.30;;
29500;SDS011;16450;50.288;10.966;2023-04-15T13:56:39;2.53;;;1.90;;
29500;SDS011;16450;50.288;10.966;2023-04-15T13:59:42;3.00;;;2.10;;
29500;SDS011;16450;50.288;10.966;2023-04-15T14:02:44;3.10;;;2.13;;
29500;SDS011;16450;50.288;10.966;2023-04-15T14:05:46;2.67;;;2.10;;
29500;SDS011;16450;50.288;10.966;2023-04-15T14:08:48;3.37;;;2.10;;
29500;SDS011;16450;50.288;10.966;2023-04-15T14:11:50;2.50;;;1.90;;
29500;SDS011;16450;50.288;10.966;2023-04-15T14:14:52;2.50;;;2.00;;
29500;SDS011;16450;50.288;10.966;2023-04-15T14:17:54;2.40;;;2.00;;
29500;SDS011;16450;50.288;10.966;2023-04-15T14:20:56;2.00;;;1.70;;
29500;SDS011;16450;50.288;10.966;2023-04-15T14:23:58;2.83;;;1.73;;
29500;SDS011;16450;50.288;10.966;2023-04-15T14:27:00;2.40;;;1.77;;
29500;SDS011;16450;50.288;10.966;2023-04-15T14:30:02;2.60;;;1.60;;
29500;SDS011;16450;50.288;10.966;2023-04-15T14:33:04;2.17;;;1.63;;
29500;SDS011;16450;50.288;10.966;2023-04-15T14:36:07;2.23;;;1.80;;
29500;SDS011;16450;50.288;10.966;2023-04-15T14:39:10;2.87;;;1.90;;
29500;SDS011;16450;50.288;10.966;2023-04-15T14:42:12;2.60;;;2.00;;
29500;SDS011;16450;50.288;10.966;2023-04-15T14:45:14;3.13;;;2.30;;
29500;SDS011;16450;50.288;10.966;2023-04-15T14:48:16;2.83;;;1.93;;
29500;SDS011;16450;50.288;10.966;2023-04-15T14:51:18;3.17;;;1.90;;
29500;SDS011;16450;50.288;10.966;2023-04-15T14:54:20;3.40;;;2.20;;
29500;SDS011;16450;50.288;10.966;2023-04-15T14:57:22;2.53;;;1.87;;
29500;SDS011;16450;50.288;10.966;2023-04-15T15:00:24;2.30;;;1.70;;
29500;SDS011;16450;50.288;10.966;2023-04-15T15:03:26;1.67;;;1.50;;
29500;SDS011;16450;50.288;10.966;2023-04-15T15:06:29;2.03;;;1.63;;
29500;SDS011;16450;50.288;10.966;2023-04-15T15:09:31;2.13;;;1.70;;
29500;SDS011;16450;50.288;10.966;2023-04-15T15:12:35;3.53;;;1.40;;
29500;SDS011;16450;50.288;10.966;2023-04-15T15:15:37;1.40;;;1.30;;
29500;SDS011;16450;50.288;10.966;2023-04-15T15:18:39;3.63;;;1.70;;
29500;SDS011;16450;50.288;10.966;2023-04-15T15:21:41;2.50;;;1.50;;
29500;SDS011;16450;50.288;10.966;2023-04-15T15:24:44;1.60;;;1.33;;
29500;SDS011;16450;50.288;10.966;2023-04-15T15:27:46;1.40;;;1.30;;
29500;SDS011;16450;50.288;10.966;2023-04-15T15:30:48;1.57;;;1.30;;
29500;SDS011;16450;50.288;10.966;2023-04-15T15:33:50;1.67;;;1.30;;
29500;SDS011;16450;50.288;10.966;2023-04-15T15:36:56;1.80;;;1.47;;
29500;SDS011;16450;50.288;10.966;2023-04-15T15:39:58;1.27;;;1.10;;
29500;SDS011;16450;50.288;10.966;2023-04-15T15:43:01;1.30;;;1.20;;
29500;SDS011;16450;50.288;10.966;2023-04-15T15:46:03;2.50;;;1.30;;
29500;SDS011;16450;50.288;10.966;2023-04-15T15:49:04;1.50;;;1.20;;
29500;SDS011;16450;50.288;10.966;2023-04-15T15:52:06;1.67;;;1.03;;
29500;SDS011;16450;50.288;10.966;2023-04-15T15:55:09;1.57;;;1.00;;
29500;SDS011;16450;50.288;10.966;2023-04-15T15:58:11;1.30;;;1.17;;
29500;SDS011;16450;50.288;10.966;2023-04-15T16:01:13;1.10;;;1.00;;
29500;SDS011;16450;50.288;10.966;2023-04-15T16:04:15;1.07;;;0.90;;
29500;SDS011;16450;50.288;10.966;2023-04-15T16:07:17;2.03;;;1.23;;
29500;SDS011;16450;50.288;10.966;2023-04-15T16:10:19;1.60;;;1.10;;
29500;SDS011;16450;50.288;10.966;2023-04-15T16:13:21;2.03;;;1.20;;
29500;SDS011;16450;50.288;10.966;2023-04-15T16:16:23;3.40;;;2.13;;
29500;SDS011;16450;50.288;10.966;2023-04-15T16:19:25;8.73;;;4.07;;
29500;SDS011;16450;50.288;10.966;2023-04-15T16:22:27;32.87;;;15.07;;
29500;SDS011;16450;50.288;10.966;2023-04-15T16:25:29;42.57;;;20.33;;
29500;SDS011;16450;50.288;10.966;2023-04-15T16:28:31;16.23;;;8.03;;
29500;SDS011;16450;50.288;10.966;2023-04-15T16:31:33;8.23;;;4.53;;
29500;SDS011;16450;50.288;10.966;2023-04-15T16:34:36;3.03;;;2.30;;
29500;SDS011;16450;50.288;10.966;2023-04-15T16:37:39;3.57;;;1.90;;
29500;SDS011;16450;50.288;10.966;2023-04-15T16:40:41;3.17;;;2.30;;
29500;SDS011;16450;50.288;10.966;2023-04-15T16:43:43;3.10;;;2.67;;
29500;SDS011;16450;50.288;10.966;2023-04-15T16:46:46;2.83;;;1.70;;
29500;SDS011;16450;50.288;10.966;2023-04-15T16:49:47;1.80;;;1.20;;
29500;SDS011;16450;50.288;10.966;2023-04-15T16:52:50;2.20;;;1.50;;
29500;SDS011;16450;50.288;10.966;2023-04-15T16:55:53;1.60;;;1.23;;
29500;SDS011;16450;50.288;10.966;2023-04-15T16:58:55;2.03;;;1.30;;
29500;SDS011;16450;50.288;10.966;2023-04-15T17:01:56;1.43;;;1.30;;
29500;SDS011;16450;50.288;10.966;2023-04-15T17:04:58;2.27;;;1.30;;
29500;SDS011;16450;50.288;10.966;2023-04-15T17:08:01;1.63;;;1.20;;
29500;SDS011;16450;50.288;10.966;2023-04-15T17:11:03;1.40;;;1.20;;
29500;SDS011;16450;50.288;10.966;2023-04-15T17:14:08;1.50;;;1.20;;
29500;SDS011;16450;50.288;10.966;2023-04-15T17:17:10;2.00;;;1.47;;
29500;SDS011;16450;50.288;10.966;2023-04-15T17:20:12;1.67;;;1.57;;
29500;SDS011;16450;50.288;10.966;2023-04-15T17:23:15;1.40;;;1.23;;
29500;SDS011;16450;50.288;10.966;2023-04-15T17:26:17;1.37;;;1.03;;
29500;SDS011;16450;50.288;10.966;2023-04-15T17:29:19;1.30;;;1.07;;
29500;SDS011;16450;50.288;10.966;2023-04-15T17:32:21;1.23;;;1.10;;
29500;SDS011;16450;50.288;10.966;2023-04-15T17:35:24;1.90;;;1.30;;
29500;SDS011;16450;50.288;10.966;2023-04-15T17:38:26;1.50;;;1.40;;
29500;SDS011;16450;50.288;10.966;2023-04-15T17:41:28;2.20;;;1.10;;
29500;SDS011;16450;50.288;10.966;2023-04-15T17:44:30;1.37;;;1.27;;
29500;SDS011;16450;50.288;10.966;2023-04-15T17:47:32;1.20;;;1.10;;
29500;SDS011;16450;50.288;10.966;2023-04-15T17:50:34;1.93;;;1.37;;
29500;SDS011;16450;50.288;10.966;2023-04-15T17:53:36;1.70;;;1.23;;
29500;SDS011;16450;50.288;10.966;2023-04-15T17:56:38;1.30;;;1.00;;
29500;SDS011;16450;50.288;10.966;2023-04-15T17:59:42;2.17;;;1.00;;
29500;SDS011;16450;50.288;10.966;2023-04-15T18:02:45;1.30;;;1.03;;
29500;SDS011;16450;50.288;10.966;2023-04-15T18:05:49;1.07;;;1.00;;